Time;durP1;ratioP1;P1;durP2;ratioP2;P2;SDS_P1;SDS_P2;PMS_P1;PMS_P2;Temp;Humidity;BMP_temperature;BMP_pressure;BME280_temperature;BME280_humidity;BME280_pressure;Samples;Min_cycle;Max_cycle;Signal;HPM_P1;HPM_P2
2022/08/26 00:01:02;;;;;;;1.75;0.88;;;;;;;;;;21121793;28;20231;-74
2022/08/26 00:11:04;;;;;;;1.92;1.00;;;;;;;;;;21137568;28;20214;-74
2022/08/26 00:21:08;;;;;;;1.48;0.80;;;26.50;95.00;;;;;;21108344;28;20263;-74
2022/08/26 00:31:10;;;;;;;1.60;0.93;;;;;;;;;;21126758;28;20499;-74
2022/08/26 00:41:12;;;;;;;2.10;1.40;;;;;;;;;;21118951;28;20223;-74
2022/08/26 00:51:22;;;;;;;2.63;1.02;;;;;;;;;;21118403;28;20221;-74
2022/08/26 01:01:26;;;;;;;2.08;1.20;;;;;;;;;;21117867;28;20217;-74
2022/08/26 01:11:28;;;;;;;1.63;1.20;;;;;;;;;;21118787;28;20219;-74
2022/08/26 01:21:46;;;;;;;1.80;1.15;;;25.50;97.20;;;;;;21118130;28;20252;-74
2022/08/26 01:31:50;;;;;;;2.10;1.00;;;;;;;;;;21151248;28;20264;-74
2022/08/26 01:41:55;;;;;;;4.10;1.27;;;;;;;;;;21116982;28;20229;-74
2022/08/26 01:51:58;;;;;;;2.85;1.40;;;;;;;;;;21134543;28;20282;-74
2022/08/26 02:02:00;;;;;;;1.58;1.05;;;;;;;;;;21115645;28;20710;-74
2022/08/26 02:12:02;;;;;;;1.85;1.05;;;;;;;;;;21126849;28;20280;-74
2022/08/26 02:22:06;;;;;;;2.85;1.38;;;;;;;;;;21146843;28;20223;-74
2022/08/26 02:32:08;;;;;;;4.05;1.48;;;24.70;99.90;;;;;;21108350;28;20283;-74
2022/08/26 02:42:10;;;;;;;2.65;1.20;;;;;;;;;;21128130;28;20654;-74
2022/08/26 02:52:12;;;;;;;1.52;0.98;;;;;;;;;;21144837;28;20243;-74
2022/08/26 03:02:15;;;;;;;2.80;1.33;;;;;;;;;;21126300;28;20228;-74
2022/08/26 03:12:19;;;;;;;2.15;1.23;;;;;;;;;;21141807;28;20268;-74
2022/08/26 03:22:20;;;;;;;3.20;1.90;;;;;;;;;;21123819;28;20230;-74
2022/08/26 03:32:22;;;;;;;3.05;1.50;;;;;;;;;;21123913;28;20254;-74
2022/08/26 03:42:24;;;;;;;3.65;1.60;;;;;;;;;;21123023;28;20225;-74
2022/08/26 03:52:26;;;;;;;3.80;1.70;;;;;;;;;;21122400;28;20260;-74
2022/08/26 04:02:28;;;;;;;2.72;1.40;;;;;;;;;;21155760;28;20252;-74
2022/08/26 04:12:30;;;;;;;3.17;1.85;;;;;;;;;;21120779;28;20275;-73
2022/08/26 04:22:32;;;;;;;3.47;1.58;;;;;;;;;;21120452;28;20632;-73
2022/08/26 04:32:33;;;;;;;6.93;1.83;;;;;;;;;;21100337;28;20297;-73
2022/08/26 04:42:35;;;;;;;6.72;2.08;;;;;;;;;;21124605;22;20229;-68
2022/08/26 04:52:37;;;;;;;3.47;2.08;;;;;;;;;;21069417;28;20582;-69
2022/08/26 05:02:39;;;;;;;4.30;1.52;;;;;;;;;;21052549;28;20704;-70
2022/08/26 05:12:41;;;;;;;4.30;3.00;;;;;;;;;;21035259;28;20274;-69
2022/08/26 05:22:43;;;;;;;5.85;2.45;;;;;;;;;;21051617;28;20248;-70
2022/08/26 05:32:47;;;;;;;9.00;2.30;;;;;;;;;;21040176;28;20267;-77
2022/08/26 05:42:51;;;;;;;4.38;1.85;;;;;;;;;;21060956;28;20216;-78
2022/08/26 05:52:53;;;;;;;2.88;1.77;;;;;;;;;;21052855;28;20201;-76
2022/08/26 06:02:55;;;;;;;9.65;2.33;;;;;;;;;;21060544;28;20282;-77
2022/08/26 06:12:58;;;;;;;4.05;2.30;;;;;;;;;;21051816;28;20251;-77
2022/08/26 06:33:21;;;;;;;3.42;1.98;;;;;;;;;;21091296;28;20208;-71
2022/08/26 06:43:25;;;;;;;4.22;1.70;;;;;;;;;;21045547;28;20278;-69
2022/08/26 06:53:26;;;;;;;3.47;1.60;;;;;;;;;;21051524;28;20917;-67
2022/08/26 07:03:29;;;;;;;3.20;1.50;;;;;;;;;;21069204;28;20753;-67
2022/08/26 07:13:31;;;;;;;1.80;1.42;;;;;;;;;;21054936;28;20255;-68
2022/08/26 07:23:33;;;;;;;2.40;1.40;;;24.80;99.90;;;;;;21070437;28;20255;-68
2022/08/26 07:33:37;;;;;;;3.00;1.55;;;;;;;;;;21035350;28;20217;-68
2022/08/26 07:43:39;;;;;;;4.38;1.65;;;25.10;97.80;;;;;;21080672;28;20248;-71
2022/08/26 07:53:42;;;;;;;2.67;1.48;;;;;;;;;;21054094;28;20227;-72
2022/08/26 08:03:44;;;;;;;3.67;1.60;;;;;;;;;;21028968;28;20226;-72
2022/08/26 08:13:47;;;;;;;4.20;1.67;;;26.10;99.90;;;;;;21039175;28;20265;-73
2022/08/26 08:23:50;;;;;;;3.05;1.70;;;25.80;98.10;;;;;;21076636;28;20222;-80
2022/08/26 08:33:52;;;;;;;2.17;1.20;;;;;;;;;;21095254;28;20213;-75
2022/08/26 08:43:55;;;;;;;5.53;1.40;;;26.40;91.80;;;;;;21105158;28;20217;-75
2022/08/26 08:53:58;;;;;;;4.22;1.40;;;26.10;99.90;;;;;;21089069;28;20270;-74
2022/08/26 09:04:03;;;;;;;2.65;1.70;;;26.60;88.60;;;;;;21094724;28;20248;-75
2022/08/26 09:14:05;;;;;;;2.55;1.42;;;;;;;;;;21079433;28;20217;-75
2022/08/26 09:24:07;;;;;;;2.85;1.58;;;;;;;;;;21040224;28;20227;-74
2022/08/26 09:34:09;;;;;;;4.70;1.63;;;;;;;;;;21064080;28;20235;-74
2022/08/26 09:44:11;;;;;;;4.28;1.60;;;;;;;;;;21052096;28;20989;-75
2022/08/26 09:54:26;;;;;;;2.50;1.48;;;27.60;84.10;;;;;;21054963;28;20213;-76
2022/08/26 10:04:29;;;;;;;5.63;1.58;;;;;;;;;;21058228;28;20279;-75
2022/08/26 10:14:45;;;;;;;3.05;1.80;;;;;;;;;;21044064;28;20281;-72
2022/08/26 10:24:54;;;;;;;2.05;1.58;;;28.20;93.40;;;;;;21045881;28;20218;-75
2022/08/26 10:34:56;;;;;;;2.95;1.73;;;;;;;;;;21028700;28;20250;-74
2022/08/26 10:45:08;;;;;;;2.88;1.60;;;;;;;;;;21048183;28;20599;-74
2022/08/26 10:55:29;;;;;;;2.50;1.52;;;29.10;91.10;;;;;;20988346;22;20691;-73
2022/08/26 11:05:32;;;;;;;1.73;1.35;;;;;;;;;;20881969;28;20264;-74
2022/08/26 11:15:39;;;;;;;2.25;1.33;;;;;;;;;;20909091;28;20233;-75
2022/08/26 11:26:14;;;;;;;1.92;1.40;;;30.00;80.80;;;;;;20919685;28;20936;-74
2022/08/26 11:36:31;;;;;;;2.28;1.42;;;;;;;;;;20904746;28;20228;-75
2022/08/26 11:46:36;;;;;;;2.42;1.52;;;;;;;;;;20905971;28;20268;-75
2022/08/26 11:56:40;;;;;;;4.45;1.50;;;30.20;87.40;;;;;;20905225;28;20367;-75
2022/08/26 12:06:50;;;;;;;3.90;1.70;;;;;;;;;;21057238;28;20580;-75
2022/08/26 12:16:55;;;;;;;3.30;1.30;;;;;;;;;;21057084;28;20208;-75
2022/08/26 12:27:16;;;;;;;2.00;1.45;;;31.00;74.70;;;;;;21056190;28;20644;-76
2022/08/26 12:37:18;;;;;;;2.30;1.30;;;;;;;;;;21053371;28;20230;-76
2022/08/26 12:47:24;;;;;;;3.72;2.05;;;;;;;;;;21054197;28;20201;-75
2022/08/26 12:57:27;;;;;;;2.03;1.33;;;;;;;;;;21053024;28;20298;-76
2022/08/26 13:07:29;;;;;;;1.80;1.23;;;;;;;;;;21052959;28;20205;-76
2022/08/26 13:17:33;;;;;;;2.28;1.00;;;;;;;;;;20998862;28;20209;-76
2022/08/26 13:27:34;;;;;;;1.65;1.10;;;;;;;;;;20995779;28;20829;-75
2022/08/26 13:37:36;;;;;;;2.33;1.38;;;;;;;;;;20993353;28;20213;-75
2022/08/26 13:47:37;;;;;;;2.20;1.30;;;;;;;;;;20993856;28;20596;-74
2022/08/26 13:57:39;;;;;;;1.63;1.10;;;;;;;;;;20991610;28;20610;-75
2022/08/26 14:07:41;;;;;;;3.13;1.40;;;;;;;;;;20990990;28;20235;-75
2022/08/26 14:17:44;;;;;;;2.75;1.27;;;30.80;76.30;;;;;;20988362;28;20217;-74
2022/08/26 14:27:46;;;;;;;1.25;0.90;;;;;;;;;;20987581;28;20270;-75
2022/08/26 14:37:48;;;;;;;2.13;1.15;;;;;;;;;;20989251;28;20298;-74
2022/08/26 14:47:51;;;;;;;5.22;1.80;;;;;;;;;;20987907;28;20201;-75
2022/08/26 14:57:52;;;;;;;8.88;1.70;;;;;;;;;;20989147;28;20259;-75
2022/08/26 15:07:54;;;;;;;11.45;2.25;;;;;;;;;;20986710;28;20227;-75
2022/08/26 15:17:56;;;;;;;2.92;1.95;;;;;;;;;;20985897;28;20229;-75
2022/08/26 15:27:58;;;;;;;6.80;2.90;;;;;;;;;;20984537;28;20676;-74
2022/08/26 15:38:00;;;;;;;3.80;2.97;;;;;;;;;;20984632;28;20221;-74
2022/08/26 15:48:02;;;;;;;2.40;1.75;;;;;;;;;;20984430;28;20687;-75
2022/08/26 15:58:03;;;;;;;3.45;2.55;;;;;;;;;;20984678;28;20217;-74
2022/08/26 16:08:06;;;;;;;3.78;2.97;;;;;;;;;;20983412;28;20205;-75
2022/08/26 16:18:08;;;;;;;4.35;2.90;;;;;;;;;;20984993;28;20236;-73
2022/08/26 16:28:12;;;;;;;5.30;2.75;;;28.10;99.90;;;;;;20971915;28;20226;-75
2022/08/26 16:38:16;;;;;;;3.70;2.42;;;;;;;;;;20988437;28;20327;-76
2022/08/26 16:48:18;;;;;;;6.00;2.50;;;;;;;;;;20986752;28;20221;-75
2022/08/26 16:58:20;;;;;;;2.88;2.20;;;;;;;;;;20988534;28;20310;-76
2022/08/26 17:08:22;;;;;;;3.45;2.30;;;;;;;;;;20956790;28;20241;-76
2022/08/26 17:18:25;;;;;;;5.00;3.03;;;;;;;;;;21005703;22;20291;-75
2022/08/26 17:28:26;;;;;;;4.43;2.90;;;;;;;;;;20785502;28;20275;-77
2022/08/26 17:38:28;;;;;;;4.22;2.78;;;;;;;;;;20839426;28;20704;-77
2022/08/26 17:48:30;;;;;;;5.55;2.70;;;;;;;;;;20838980;28;20497;-77
2022/08/26 17:58:32;;;;;;;6.20;3.25;;;;;;;;;;20880393;28;20221;-74
2022/08/26 18:08:34;;;;;;;4.20;3.28;;;;;;;;;;20820583;28;20206;-74
2022/08/26 18:18:37;;;;;;;6.47;3.30;;;;;;;;;;20816750;28;20708;-74
2022/08/26 18:28:39;;;;;;;4.70;2.90;;;;;;;;;;20843607;28;20214;-74
2022/08/26 18:38:40;;;;;;;3.75;2.85;;;;;;;;;;20812323;28;20213;-74
2022/08/26 18:48:42;;;;;;;3.58;2.72;;;;;;;;;;20815153;28;20287;-73
2022/08/26 18:58:44;;;;;;;3.95;2.90;;;;;;;;;;20825761;28;20217;-74
2022/08/26 19:08:46;;;;;;;4.25;3.03;;;;;;;;;;20829461;28;21043;-74
2022/08/26 19:18:49;;;;;;;3.97;2.65;;;;;;;;;;20817194;28;20287;-74
2022/08/26 19:28:51;;;;;;;2.67;1.98;;;;;;;;;;20810881;28;20226;-74
2022/08/26 19:38:55;;;;;;;4.60;2.72;;;;;;;;;;20804154;28;20263;-74
2022/08/26 19:48:57;;;;;;;6.20;2.65;;;;;;;;;;20811745;28;20255;-74
2022/08/26 19:59:00;;;;;;;3.28;2.30;;;;;;;;;;20813704;28;20213;-74
2022/08/26 20:09:02;;;;;;;3.65;2.40;;;;;;;;;;20807996;28;20210;-74
2022/08/26 20:29:24;;;;;;;3.38;2.33;;;;;;;;;;20828332;28;20595;-74
2022/08/26 20:39:28;;;;;;;3.25;1.92;;;;;;;;;;20829220;28;20247;-73
2022/08/26 20:49:30;;;;;;;6.22;2.75;;;25.90;99.90;;;;;;20821152;28;20255;-75
2022/08/26 20:59:33;;;;;;;2.88;2.45;;;;;;;;;;20826187;28;20291;-74
2022/08/26 21:09:34;;;;;;;4.13;3.17;;;;;;;;;;20823315;28;20258;-73
2022/08/26 21:19:36;;;;;;;3.45;2.53;;;;;;;;;;20824563;28;20243;-74
2022/08/26 21:29:38;;;;;;;3.65;2.72;;;;;;;;;;20823117;28;20220;-73
2022/08/26 21:39:39;;;;;;;5.90;2.67;;;;;;;;;;20823959;28;20242;-73
2022/08/26 21:49:42;;;;;;;4.95;2.83;;;;;;;;;;20825870;28;20210;-74
2022/08/26 21:59:44;;;;;;;3.22;2.70;;;;;;;;;;20823344;28;20242;-74
2022/08/26 22:09:46;;;;;;;3.60;2.30;;;;;;;;;;20825013;28;20209;-75
2022/08/26 22:19:48;;;;;;;4.13;2.83;;;;;;;;;;20825293;28;20219;-73
2022/08/26 22:29:50;;;;;;;3.67;2.65;;;;;;;;;;20820741;28;20462;-72
2022/08/26 22:39:52;;;;;;;5.47;3.30;;;;;;;;;;20821781;28;20281;-72
2022/08/26 22:49:54;;;;;;;7.30;4.07;;;;;;;;;;20820469;28;20212;-72
2022/08/26 22:59:55;;;;;;;5.20;3.72;;;;;;;;;;20821962;28;20345;-73
2022/08/26 23:09:57;;;;;;;4.57;3.70;;;;;;;;;;20821312;28;20263;-72
2022/08/26 23:19:59;;;;;;;6.90;3.90;;;;;;;;;;20819632;28;20701;-73
2022/08/26 23:30:01;;;;;;;5.30;3.92;;;;;;;;;;20906749;22;20238;-77
2022/08/26 23:40:05;;;;;;;6.57;3.92;;;;;;;;;;20897672;28;20285;-75
2022/08/26 23:50:06;;;;;;;4.35;3.40;;;;;;;;;;20898627;28;20212;-75
